VTPBVTCC

Guest
Details From VTPB - Phetchabun
To VTCC - Chiang Mai Intl
Flight Number -
Tags generated
Created
Modified
Stats Distance 182 nm / 336 km
Max Altitude 22,600 ft / 6,888 m
Waypoints 4
Social Downloads 1
Likes 0
Share VATSIM

Download

Looking for another format? Having issues loading an existing format? Contact us
Advertisement - Login to hide

Notes

Basic altitude profile: - Ascent Rate: 2500ft/min - Ascent Speed: 250kts - Cruise Altitude: 35000ft - Cruise Speed: 420kts - Descent Rate: 1500ft/min - Descent Speed: 250kts Options: - Use NATs: yes - Use PACOTS: yes - Use low airways: yes - Use high airways: yes

Route

VTPB UTTAR W16 CMA VTCC

ID Type Via Altitude Latitude Longitude Leg Dist Tot Dist Heading (true) Name
O VTPB APT - 0 ft / 0 m 16.67603˚ 101.19511˚ - 0 nm - Phetchabun
UTTAR FIX - 22,600 ft / 6,888 m 17.71803˚ 100.45167˚ 75 nm 75 nm 326° / 326° -
CMA VOR W16 (AWY-LO) 6,500 ft / 1,981 m 18.76612˚ 98.96126˚ 105 nm 181 nm 307° / 306° CHIANG MAI VOR-DME
O VTCC APT - 0 ft / 0 m 18.76685˚ 98.96264˚ 0 nm 181 nm 61° / 61° Chiang Mai Intl

Altitude Profile

Advertisement - Login to hide

Weather


0- 5 10 15 20 25 30 35+ Temperature / ° C

Clouds and Precipitation
Forecast for 2017-12-16 06:00 UTC. Updated 40 minutes ago

Ground ~20,000 ft ~40,000 ft Winds

VTPB

Details ICAO VTPB (PHY)
Name Phetchabun
Region Thailand
Timezone Asia/Bangkok (UTC+7.0)
Stats Elevation 450 ft / 137 m (AMSL)
Location 16.676029° 101.195109°
Runways 1
Magnetic Variation 0.744° W

METAR

Not found

TAF

TAF VTPB 152300Z 1600/1624 08005KT 8000 FEW030

Decode

Departure Runways

ID Width Length Bearing (true) Bearing (mag) Surface Threshold Offset Overrun Length
18 148 ft / 45 m 6,930 ft / 2,112 m 180.05° 180.79° Asphalt 0 ft / 0 m 197 ft / 60 m
36 148 ft / 45 m 6,930 ft / 2,112 m 0.05° 0.79° Asphalt 0 ft / 0 m 197 ft / 60 m

VTCC

Details ICAO VTCC (CNX)
Name Chiang Mai Intl
Region Thailand
Timezone Asia/Bangkok (UTC+7.0)
Stats Elevation 1,036 ft / 316 m (AMSL)
Location 18.766845° 98.962643°
Runways 1
Magnetic Variation 0.738° W

METAR

VTCC 160200Z 01004KT 9999 FEW035 21/15 Q1021 NOSIG

Decode

TAF

TAF VTCC 152300Z 1600/1706 02005KT 9999 FEW035

Decode

Destination Runways

ID Width Length Bearing (true) Bearing (mag) Surface Threshold Offset Overrun Length
18 148 ft / 45 m 10,237 ft / 3,120 m 180.22° 180.96° Asphalt 0 ft / 0 m 974 ft / 297 m
36 148 ft / 45 m 10,237 ft / 3,120 m 0.22° 0.96° Asphalt 0 ft / 0 m 341 ft / 104 m

Approach Navaids

Runway Type Ident Frequency Range Bearing (true) Bearing (mag) Slope Elevation
36 Localiser ICMA 109.90 MHz 18 nm / 33 km 359.49° 0.23° - 1,035 ft / 315 m (AMSL)
36 Glidescope ICMA 109.90 MHz 10 nm / 19 km 0.22° 0.96° 3.00° 1,005 ft / 306 m (AMSL)
36 DME ICMA 109.90 MHz 18 nm / 33 km - - - 1,035 ft / 315 m (AMSL)